Time;durP1;ratioP1;P1;durP2;ratioP2;P2;SDS_P1;SDS_P2;PMS_P1;PMS_P2;Temp;Humidity;BMP_temperature;BMP_pressure;BME280_temperature;BME280_humidity;BME280_pressure;Samples;Min_cycle;Max_cycle;Signal;HPM_P1;HPM_P2
2022/09/17 00:00:54;;;;;;;3.40;2.90;;;;;;;10.33;84.50;95684.45;108041;1269;23852;-79
2022/09/17 00:03:36;;;;;;;3.50;2.80;;;;;;;10.38;84.64;95686.83;108037;1270;23937;-79
2022/09/17 00:06:12;;;;;;;4.10;2.80;;;;;;;10.40;84.53;95687.00;107984;1270;26440;-79
2022/09/17 00:08:43;;;;;;;4.00;2.70;;;;;;;10.35;84.62;95694.39;108014;1270;33772;-79
2022/09/17 00:11:16;;;;;;;4.40;2.80;;;;;;;10.27;84.95;95699.70;108053;1269;22625;-79
2022/09/17 00:13:48;;;;;;;5.40;2.80;;;;;;;10.15;85.54;95697.13;108106;1268;22714;-79
2022/09/17 00:16:27;;;;;;;3.90;3.00;;;;;;;10.14;85.83;95699.31;108028;1270;24204;-79
2022/09/17 00:18:59;;;;;;;4.00;3.10;;;;;;;10.18;86.02;95698.54;108081;1268;28111;-79
2022/09/17 00:21:31;;;;;;;4.00;3.00;;;;;;;10.20;85.96;95697.50;108025;1270;22529;-79
2022/09/17 00:24:05;;;;;;;4.90;3.00;;;;;;;10.21;86.01;95703.48;108099;1268;24244;-79
2022/09/17 00:26:37;;;;;;;4.00;2.80;;;;;;;10.18;85.89;95702.77;108076;1270;24534;-79
2022/09/17 00:29:09;;;;;;;4.40;2.90;;;;;;;10.17;86.05;95703.18;107972;1270;32888;-79
2022/09/17 00:31:40;;;;;;;3.80;2.80;;;;;;;10.18;86.23;95703.84;108108;1268;22558;-79
2022/09/17 00:34:11;;;;;;;3.60;3.00;;;;;;;10.18;86.30;95702.72;108119;1268;24161;-79
2022/09/17 00:36:43;;;;;;;5.30;3.40;;;;;;;10.18;86.64;95708.55;108052;1270;26911;-79
2022/09/17 00:39:15;;;;;;;3.00;2.70;;;;;;;10.18;86.59;95712.09;108044;1268;26503;-79
2022/09/17 00:41:46;;;;;;;5.70;2.70;;;;;;;10.17;86.55;95710.90;108126;1268;22548;-79
2022/09/17 00:44:47;;;;;;;3.30;2.80;;;;;;;10.18;86.59;95704.90;108057;1270;22555;-79
2022/09/17 00:47:27;;;;;;;3.90;2.80;;;;;;;10.18;86.67;95701.46;108190;1268;22545;-79
2022/09/17 00:50:01;;;;;;;5.60;3.00;;;;;;;10.15;86.71;95694.75;108055;1268;24889;-79
2022/09/17 00:52:36;;;;;;;4.80;3.10;;;;;;;10.11;86.93;95691.80;108107;1268;25169;-79
2022/09/17 00:55:16;;;;;;;3.80;2.50;;;;;;;10.07;87.15;95685.31;108136;1268;22542;-79
2022/09/17 00:57:49;;;;;;;3.20;2.60;;;;;;;10.08;87.28;95684.45;108102;1268;24126;-79
2022/09/17 01:00:21;;;;;;;3.50;2.70;;;;;;;10.12;87.29;95691.13;108041;1270;24422;-79
2022/09/17 01:02:53;;;;;;;4.50;2.80;;;;;;;10.18;87.36;95691.77;108087;1268;22530;-79
2022/09/17 01:05:31;;;;;;;3.40;2.80;;;;;;;10.21;87.36;95691.64;108102;1268;24025;-79
2022/09/17 01:08:13;;;;;;;6.10;3.00;;;;;;;10.24;87.40;95690.85;108098;1268;22550;-79
2022/09/17 01:11:05;;;;;;;3.30;3.00;;;;;;;10.23;87.33;95689.91;107997;1270;24671;-79
2022/09/17 01:13:50;;;;;;;3.10;2.80;;;;;;;10.24;87.33;95691.29;108083;1270;23921;-79
2022/09/17 01:16:28;;;;;;;5.70;2.50;;;;;;;10.28;87.34;95694.33;108119;1268;23378;-79
2022/09/17 01:19:10;;;;;;;4.20;2.70;;;;;;;10.31;87.15;95690.87;108047;1268;26521;-79
2022/09/17 01:22:01;;;;;;;3.00;2.70;;;;;;;10.33;87.05;95689.08;108159;1268;22539;-79
2022/09/17 01:24:59;;;;;;;4.20;2.50;;;;;;;10.34;87.05;95692.83;108127;1268;22634;-79
2022/09/17 01:28:15;;;;;;;3.80;2.40;;;;;;;10.35;87.00;95694.98;108038;1268;22684;-79
2022/09/17 01:31:23;;;;;;;3.50;3.10;;;;;;;10.33;86.93;95699.92;107751;1270;25235;-79
2022/09/17 01:34:06;;;;;;;3.50;3.10;;;;;;;10.29;86.84;95696.73;108109;1268;25410;-79
2022/09/17 01:36:49;;;;;;;3.50;2.70;;;;;;;10.28;86.87;95698.57;108134;1268;22529;-79
2022/09/17 01:39:34;;;;;;;4.50;2.60;;;;;;;10.27;86.81;95699.36;108066;1268;26367;-79
2022/09/17 01:42:15;;;;;;;5.70;2.70;;;;;;;10.27;86.70;95700.11;106957;1268;1566383;-79
2022/09/17 01:44:55;;;;;;;2.90;2.60;;;;;;;10.35;86.67;95707.52;108102;1268;22660;-79
2022/09/17 01:47:31;;;;;;;4.10;2.60;;;;;;;10.39;86.41;95705.88;108115;1268;24891;-79
2022/09/17 01:50:07;;;;;;;3.20;2.70;;;;;;;10.38;86.27;95706.75;108012;1268;28436;-79
2022/09/17 01:52:41;;;;;;;3.30;2.50;;;;;;;10.39;86.25;95704.52;108125;1268;22577;-79
2022/09/17 01:55:16;;;;;;;4.90;2.70;;;;;;;10.37;86.09;95698.79;108057;1270;22535;-79
2022/09/17 01:57:53;;;;;;;3.40;3.10;;;;;;;10.32;86.01;95688.94;108146;1268;22535;-79
2022/09/17 02:00:24;;;;;;;4.50;2.70;;;;;;;10.27;85.95;95684.98;108025;1268;28448;-79
2022/09/17 02:03:00;;;;;;;3.90;2.40;;;;;;;10.23;85.92;95682.34;108077;1270;22901;-79
2022/09/17 02:05:35;;;;;;;4.00;3.00;;;;;;;10.19;85.96;95686.77;108118;1268;24150;-79
2022/09/17 02:08:10;;;;;;;2.90;2.30;;;;;;;10.16;86.16;95687.20;108097;1268;25470;-79
2022/09/17 02:10:45;;;;;;;2.90;2.40;;;;;;;10.13;86.14;95689.36;108045;1268;27219;-79
2022/09/17 02:13:22;;;;;;;2.60;2.20;;;;;;;10.09;86.23;95691.03;108123;1268;22552;-79
2022/09/17 02:15:57;;;;;;;3.70;2.50;;;;;;;10.10;86.36;95693.55;108110;1268;24409;-79
2022/09/17 02:18:33;;;;;;;5.20;2.50;;;;;;;10.10;86.23;95687.23;107997;1270;23461;-78
2022/09/17 02:21:12;;;;;;;2.50;2.30;;;;;;;10.12;86.17;95687.63;108127;1268;24313;-79
2022/09/17 02:23:50;;;;;;;4.30;2.50;;;;;;;10.09;85.92;95684.61;108115;1268;24416;-79
2022/09/17 02:26:23;;;;;;;2.70;2.40;;;;;;;10.05;85.96;95698.29;108049;1270;22625;-78
2022/09/17 02:28:59;;;;;;;2.90;2.50;;;;;;;10.01;86.13;95707.52;108000;1270;30774;-78
2022/09/17 02:31:31;;;;;;;4.00;2.50;;;;;;;9.90;86.27;95707.00;108128;1268;22560;-78
2022/09/17 02:34:04;;;;;;;4.50;2.90;;;;;;;9.85;86.58;95700.74;108040;1270;22467;-79
2022/09/17 02:36:36;;;;;;;3.80;3.10;;;;;;;9.78;86.89;95699.77;108095;1268;22654;-79
2022/09/17 02:39:09;;;;;;;4.60;3.40;;;;;;;9.70;87.28;95700.34;108023;1270;24858;-79
2022/09/17 02:41:50;;;;;;;3.60;3.20;;;;;;;9.61;87.63;95695.45;108101;1270;22659;-79
2022/09/17 02:44:32;;;;;;;5.90;3.20;;;;;;;9.56;88.11;95691.73;108089;1268;22531;-79
2022/09/17 02:47:27;;;;;;;4.00;2.90;;;;;;;9.53;88.42;95693.78;108042;1270;22548;-79
2022/09/17 02:50:13;;;;;;;3.60;3.20;;;;;;;9.51;88.80;95689.38;107961;1270;25457;-79
2022/09/17 02:52:57;;;;;;;4.30;3.20;;;;;;;9.49;88.86;95683.23;108087;1268;22782;-79
2022/09/17 02:55:37;;;;;;;3.90;3.20;;;;;;;9.49;88.89;95684.66;108128;1268;23791;-79
2022/09/17 02:58:21;;;;;;;3.50;3.00;;;;;;;9.47;88.71;95683.96;108066;1270;22611;-79
2022/09/17 03:00:53;;;;;;;3.60;3.20;;;;;;;9.45;89.01;95684.69;108113;1269;22552;-79
2022/09/17 03:03:32;;;;;;;3.10;2.70;;;;;;;9.45;88.95;95680.14;108094;1268;24844;-79
2022/09/17 03:06:04;;;;;;;4.50;2.70;;;;;;;9.43;88.86;95685.94;108142;1268;23215;-79
2022/09/17 03:08:38;;;;;;;3.40;2.70;;;;;;;9.44;88.79;95685.45;108053;1268;30454;-79
2022/09/17 03:11:11;;;;;;;2.80;2.50;;;;;;;9.47;88.74;95680.00;108060;1270;26554;-79
2022/09/17 03:13:43;;;;;;;2.70;2.50;;;;;;;9.52;88.78;95680.15;108136;1268;22556;-78
2022/09/17 03:16:14;;;;;;;4.30;2.50;;;;;;;9.58;88.67;95673.40;108080;1270;22579;-79
2022/09/17 03:18:45;;;;;;;5.10;2.80;;;;;;;9.59;88.55;95668.09;107995;1270;32239;-78
2022/09/17 03:21:16;;;;;;;2.50;2.30;;;;;;;9.61;88.58;95669.98;108057;1270;22649;-79
2022/09/17 03:23:48;;;;;;;3.90;3.10;;;;;;;9.60;88.54;95671.71;108076;1268;24233;-79
2022/09/17 03:26:19;;;;;;;4.10;2.70;;;;;;;9.53;88.85;95671.24;108112;1268;24344;-78
2022/09/17 03:28:50;;;;;;;3.80;2.70;;;;;;;9.47;89.09;95672.10;108082;1268;26498;-78
2022/09/17 03:31:21;;;;;;;5.30;3.00;;;;;;;9.45;89.20;95666.97;108093;1270;22542;-78
2022/09/17 03:33:52;;;;;;;3.80;2.70;;;;;;;9.44;89.34;95666.55;108130;1268;24457;-79
2022/09/17 03:36:23;;;;;;;4.10;2.80;;;;;;;9.42;89.48;95658.55;108087;1268;25273;-78
2022/09/17 03:38:57;;;;;;;3.30;2.90;;;;;;;9.38;89.79;95652.29;108070;1268;33112;-79
2022/09/17 03:41:29;;;;;;;4.90;3.30;;;;;;;9.34;90.10;95649.14;108136;1268;24553;-79
2022/09/17 03:44:00;;;;;;;3.80;3.30;;;;;;;9.32;90.09;95646.59;108115;1269;22601;-79
2022/09/17 03:46:31;;;;;;;3.40;2.90;;;;;;;9.31;90.15;95642.26;108074;1269;22561;-79
2022/09/17 03:49:02;;;;;;;3.10;2.60;;;;;;;9.32;89.93;95641.02;108048;1268;26375;-78
2022/09/17 03:51:33;;;;;;;3.20;2.80;;;;;;;9.35;90.02;95637.26;108077;1270;22539;-79
2022/09/17 03:54:05;;;;;;;4.40;2.70;;;;;;;9.37;89.84;95634.79;108114;1268;22703;-79
2022/09/17 03:56:36;;;;;;;4.30;2.60;;;;;;;9.35;89.84;95633.55;108049;1270;26575;-79
2022/09/17 03:59:07;;;;;;;3.80;3.10;;;;;;;9.33;90.18;95633.75;108007;1270;29651;-78
2022/09/17 04:01:38;;;;;;;4.20;3.40;;;;;;;9.33;90.56;95632.65;108062;1270;23961;-78
2022/09/17 04:04:09;;;;;;;4.80;3.20;;;;;;;9.32;90.72;95632.98;108141;1268;22641;-78
2022/09/17 04:06:43;;;;;;;3.30;2.80;;;;;;;9.29;90.97;95631.34;108098;1268;24227;-78
2022/09/17 04:09:14;;;;;;;5.20;3.10;;;;;;;9.29;90.98;95628.59;108057;1268;33787;-78
2022/09/17 04:11:45;;;;;;;4.70;3.50;;;;;;;9.29;91.02;95619.55;108124;1268;22533;-78
2022/09/17 04:14:17;;;;;;;3.40;3.10;;;;;;;9.33;91.15;95618.78;108107;1268;24228;-79
2022/09/17 04:16:48;;;;;;;3.30;3.00;;;;;;;9.37;91.05;95620.24;108083;1268;22555;-79
2022/09/17 04:19:19;;;;;;;2.70;2.40;;;;;;;9.38;90.85;95617.30;108021;1268;31210;-78
2022/09/17 04:21:51;;;;;;;3.30;2.70;;;;;;;9.38;90.75;95622.96;108021;1270;22652;-78
2022/09/17 04:24:23;;;;;;;4.30;2.70;;;;;;;9.40;90.75;95624.77;108023;1270;22535;-78
2022/09/17 04:26:54;;;;;;;3.50;2.70;;;;;;;9.43;90.61;95617.33;108102;1268;22535;-79
2022/09/17 04:29:25;;;;;;;4.10;2.80;;;;;;;9.46;90.53;95618.55;107978;1269;40397;-79
2022/09/17 04:31:56;;;;;;;6.50;3.20;;;;;;;9.46;90.70;95618.52;108034;1270;22538;-79
2022/09/17 04:34:30;;;;;;;3.30;2.60;;;;;;;9.46;90.67;95620.42;108080;1269;22551;-79
2022/09/17 04:37:02;;;;;;;4.50;3.10;;;;;;;9.48;90.83;95624.27;108087;1268;22555;-79
2022/09/17 04:39:34;;;;;;;5.30;3.80;;;;;;;9.50;90.74;95624.79;108012;1268;30981;-79
2022/09/17 04:42:06;;;;;;;3.50;2.80;;;;;;;9.51;90.47;95627.22;108047;1268;23708;-79
2022/09/17 04:44:37;;;;;;;3.00;2.50;;;;;;;9.49;90.38;95639.21;108091;1268;22533;-78
2022/09/17 04:47:09;;;;;;;2.30;2.10;;;;;;;9.48;90.24;95637.65;108071;1268;25535;-79
2022/09/17 04:49:40;;;;;;;3.10;2.50;;;;;;;9.50;90.10;95628.48;108018;1268;27779;-79
2022/09/17 04:52:11;;;;;;;5.20;2.70;;;;;;;9.56;89.88;95624.30;107999;1270;23139;-79
2022/09/17 04:54:42;;;;;;;2.90;2.40;;;;;;;9.61;89.67;95613.91;108103;1268;22541;-79
2022/09/17 04:57:13;;;;;;;2.50;2.20;;;;;;;9.65;89.42;95612.73;108102;1269;22536;-79
2022/09/17 04:59:44;;;;;;;4.30;2.90;;;;;;;9.72;89.21;95609.64;108035;1270;30557;-79
2022/09/17 05:02:16;;;;;;;3.10;2.70;;;;;;;9.94;89.28;95606.48;108086;1270;25367;-79
2022/09/17 05:04:47;;;;;;;3.80;2.40;;;;;;;10.30;88.82;95605.11;108066;1270;22555;-79
2022/09/17 05:07:18;;;;;;;2.30;2.10;;;;;;;10.44;87.87;95610.36;108086;1270;22540;-79
2022/09/17 05:09:49;;;;;;;3.50;2.10;;;;;;;10.68;87.65;95611.42;108036;1269;30328;-79
2022/09/17 05:12:20;;;;;;;1.90;1.80;;;;;;;11.49;87.77;95615.19;108095;1268;24267;-79
2022/09/17 05:14:52;;;;;;;4.20;1.40;;;;;;;12.37;86.00;95617.88;108134;1268;25305;-79
2022/09/17 05:17:26;;;;;;;3.40;1.60;;;;;;;12.69;83.84;95616.42;108072;1270;22548;-79
2022/09/17 05:19:59;;;;;;;1.50;1.30;;;;;;;12.92;82.81;95620.12;108020;1265;26480;-79
2022/09/17 05:22:30;;;;;;;1.80;1.50;;;;;;;13.43;81.82;95622.15;108115;1270;23845;-79
2022/09/17 05:25:01;;;;;;;2.60;1.30;;;;;;;13.41;79.80;95616.52;108057;1270;22548;-78
2022/09/17 05:27:36;;;;;;;2.50;1.20;;;;;;;13.06;79.10;95613.33;108089;1268;26537;-79
2022/09/17 05:30:10;;;;;;;3.20;1.50;;;;;;;12.98;78.94;95610.10;107989;1269;31662;-79
2022/09/17 05:32:42;;;;;;;1.50;1.40;;;;;;;12.96;78.41;95604.88;108167;1269;22576;-79
2022/09/17 05:35:13;;;;;;;1.30;1.20;;;;;;;12.92;78.05;95600.71;108071;1270;22684;-79
2022/09/17 05:37:47;;;;;;;1.60;1.30;;;;;;;13.13;78.17;95604.30;108098;1270;23339;-79
2022/09/17 05:40:19;;;;;;;1.50;1.30;;;;;;;13.24;76.79;95610.22;108012;1270;23277;-79
2022/09/17 05:42:51;;;;;;;1.60;1.40;;;;;;;12.97;76.43;95609.40;108142;1268;22544;-79
2022/09/17 05:45:23;;;;;;;3.50;1.60;;;;;;;12.92;76.70;95607.05;108050;1270;23612;-79
2022/09/17 05:47:59;;;;;;;3.20;1.70;;;;;;;13.15;77.16;95617.98;108024;1270;22544;-79
2022/09/17 05:50:31;;;;;;;2.90;1.90;;;;;;;13.39;77.04;95631.03;108010;1270;35453;-79
2022/09/17 05:53:08;;;;;;;1.90;1.70;;;;;;;13.37;76.14;95627.63;108063;1270;24237;-79
2022/09/17 05:55:40;;;;;;;4.00;1.90;;;;;;;13.25;76.00;95629.48;108111;1270;24229;-79
2022/09/17 05:58:14;;;;;;;3.80;1.90;;;;;;;13.18;76.29;95629.23;108109;1270;23826;-79
2022/09/17 06:00:47;;;;;;;3.50;2.00;;;;;;;13.18;76.25;95628.48;108091;1270;22558;-79
2022/09/17 06:03:21;;;;;;;3.10;1.90;;;;;;;13.19;76.30;95628.77;108116;1270;22530;-80
2022/09/17 06:05:57;;;;;;;2.00;1.70;;;;;;;13.15;75.89;95642.27;108122;1268;25229;-79
2022/09/17 06:08:30;;;;;;;3.90;1.70;;;;;;;12.99;75.52;95648.71;108003;1269;27741;-79
2022/09/17 06:11:05;;;;;;;2.10;1.70;;;;;;;12.77;75.72;95641.40;108014;1270;22526;-79
2022/09/17 06:13:38;;;;;;;2.10;1.60;;;;;;;12.82;76.23;95635.05;108129;1268;22558;-79
2022/09/17 06:16:09;;;;;;;1.70;1.60;;;;;;;12.99;76.44;95637.66;108026;1270;22592;-79
2022/09/17 06:18:40;;;;;;;2.20;1.70;;;;;;;13.25;76.57;95639.96;107978;1270;25244;-79
2022/09/17 06:21:12;;;;;;;1.90;1.50;;;;;;;13.45;75.67;95635.45;108106;1268;22546;-79
2022/09/17 06:23:43;;;;;;;3.00;1.50;;;;;;;13.56;74.96;95631.89;108085;1268;22558;-79
2022/09/17 06:26:15;;;;;;;1.60;1.40;;;;;;;14.19;74.90;95636.17;108029;1270;22583;-79
2022/09/17 06:28:48;;;;;;;1.70;1.60;;;;;;;14.80;73.42;95639.02;108000;1270;28214;-78
2022/09/17 06:31:20;;;;;;;2.30;1.70;;;;;;;14.98;71.11;95634.04;108058;1269;24025;-79
2022/09/17 06:33:51;;;;;;;2.90;1.40;;;;;;;14.86;70.36;95638.77;108072;1270;22568;-78
2022/09/17 06:36:23;;;;;;;3.40;1.50;;;;;;;14.81;69.64;95633.48;108087;1269;22862;-79
2022/09/17 06:38:55;;;;;;;3.30;1.50;;;;;;;14.66;68.58;95629.91;107943;1270;28129;-79
2022/09/17 06:41:26;;;;;;;1.40;1.30;;;;;;;14.58;68.54;95631.45;108036;1270;24503;-79
2022/09/17 06:43:58;;;;;;;1.50;1.00;;;;;;;14.69;67.83;95635.33;108054;1270;25224;-78
2022/09/17 06:46:30;;;;;;;2.10;1.20;;;;;;;14.97;66.88;95629.13;108076;1270;25547;-79
2022/09/17 06:49:01;;;;;;;2.10;1.60;;;;;;;14.90;65.08;95621.59;108040;1268;28184;-79
2022/09/17 06:51:33;;;;;;;2.90;1.40;;;;;;;14.90;65.57;95615.86;108111;1268;22549;-79
2022/09/17 06:54:04;;;;;;;1.50;0.90;;;;;;;14.93;64.83;95616.27;108072;1270;25318;-79
2022/09/17 06:56:36;;;;;;;1.30;1.20;;;;;;;14.82;64.85;95613.38;108111;1270;24432;-79
2022/09/17 06:59:07;;;;;;;2.80;1.30;;;;;;;14.56;64.86;95620.56;108010;1270;25581;-79
2022/09/17 07:01:39;;;;;;;2.50;1.10;;;;;;;14.34;65.36;95619.20;108105;1270;22537;-79
2022/09/17 07:04:10;;;;;;;1.50;1.00;;;;;;;14.45;66.26;95618.17;108113;1268;24226;-79
2022/09/17 07:06:45;;;;;;;1.80;1.10;;;;;;;14.45;65.61;95618.39;108074;1270;22559;-79
2022/09/17 07:09:16;;;;;;;1.10;1.00;;;;;;;14.18;64.87;95626.41;108017;1270;26194;-79
2022/09/17 07:11:48;;;;;;;2.40;1.40;;;;;;;14.07;65.39;95623.27;108094;1269;22529;-79
2022/09/17 07:14:20;;;;;;;2.00;1.20;;;;;;;14.28;65.54;95625.75;108058;1270;24030;-79
2022/09/17 07:16:52;;;;;;;1.20;1.10;;;;;;;14.48;64.95;95632.39;108066;1270;22546;-79
2022/09/17 07:19:24;;;;;;;1.00;0.90;;;;;;;14.61;65.12;95636.52;107972;1270;40104;-79
2022/09/17 07:21:55;;;;;;;2.10;1.20;;;;;;;14.67;64.43;95638.23;108088;1270;25364;-79
2022/09/17 07:24:29;;;;;;;2.80;1.30;;;;;;;14.82;64.19;95638.73;108112;1267;26418;-79
2022/09/17 07:27:00;;;;;;;1.50;1.00;;;;;;;14.56;63.43;95633.77;108120;1269;22541;-79
2022/09/17 07:29:31;;;;;;;1.70;1.00;;;;;;;14.29;63.66;95631.13;108066;1270;26661;-79
2022/09/17 07:32:03;;;;;;;1.60;1.10;;;;;;;14.04;63.51;95639.88;108102;1268;23075;-79
2022/09/17 07:34:34;;;;;;;1.40;0.90;;;;;;;13.93;64.55;95651.59;108088;1269;23825;-79
2022/09/17 07:37:06;;;;;;;4.20;1.40;;;;;;;14.32;64.75;95648.09;108052;1270;23420;-79
2022/09/17 07:39:38;;;;;;;2.80;1.00;;;;;;;14.70;63.93;95647.21;108050;1270;26817;-79
2022/09/17 07:42:10;;;;;;;1.50;1.10;;;;;;;14.99;63.53;95645.23;108090;1270;22523;-79
2022/09/17 07:44:42;;;;;;;1.80;1.10;;;;;;;15.19;62.75;95652.53;108085;1270;26588;-79
2022/09/17 07:47:13;;;;;;;1.40;1.20;;;;;;;15.23;62.93;95657.55;108049;1270;22769;-79
2022/09/17 07:49:45;;;;;;;1.70;1.20;;;;;;;15.22;62.23;95659.64;107963;1270;34236;-79
2022/09/17 07:52:17;;;;;;;3.20;1.40;;;;;;;14.94;62.14;95665.02;108057;1270;23384;-79
2022/09/17 07:54:49;;;;;;;2.20;1.40;;;;;;;14.76;62.58;95664.42;108099;1270;22551;-79
2022/09/17 07:57:21;;;;;;;1.50;1.10;;;;;;;14.75;63.39;95663.70;108090;1268;22612;-79
2022/09/17 07:59:53;;;;;;;1.80;1.10;;;;;;;14.91;63.50;95670.02;108000;1270;28742;-79
2022/09/17 08:02:25;;;;;;;2.30;1.20;;;;;;;14.98;62.91;95660.29;108128;1270;24016;-79
2022/09/17 08:04:57;;;;;;;2.00;1.20;;;;;;;15.04;62.44;95650.87;108061;1270;22523;-79
2022/09/17 08:07:29;;;;;;;2.50;1.10;;;;;;;14.96;62.20;95642.32;108069;1270;26584;-79
2022/09/17 08:10:01;;;;;;;1.50;1.20;;;;;;;14.72;62.15;95633.91;107959;1270;24061;-79
2022/09/17 08:12:33;;;;;;;1.30;1.10;;;;;;;14.58;62.55;95631.45;108038;1270;22570;-79
2022/09/17 08:15:05;;;;;;;2.00;1.20;;;;;;;14.35;62.57;95638.59;108081;1270;24233;-79
2022/09/17 08:17:36;;;;;;;1.60;1.20;;;;;;;14.06;62.89;95634.78;108108;1271;22618;-79
2022/09/17 08:20:10;;;;;;;1.60;1.10;;;;;;;14.05;63.42;95631.02;107855;1270;34022;-80
2022/09/17 08:22:42;;;;;;;3.30;1.30;;;;;;;14.12;63.55;95633.58;108128;1268;24536;-81
2022/09/17 08:25:14;;;;;;;2.00;1.10;;;;;;;14.37;63.68;95635.94;108071;1270;22524;-80
2022/09/17 08:27:45;;;;;;;3.40;1.10;;;;;;;14.60;63.44;95635.19;107861;1270;25473;-79
2022/09/17 08:30:17;;;;;;;2.10;0.90;;;;;;;14.83;63.80;95636.76;107770;1270;28946;-79
2022/09/17 08:32:48;;;;;;;3.80;1.40;;;;;;;15.09;62.79;95629.02;107872;1268;22571;-80
2022/09/17 08:35:23;;;;;;;1.40;0.90;;;;;;;15.46;62.76;95622.05;107761;1270;25290;-81
2022/09/17 08:37:56;;;;;;;3.10;1.20;;;;;;;15.56;61.77;95623.91;107834;1268;22644;-80
2022/09/17 08:40:27;;;;;;;2.20;1.00;;;;;;;15.40;61.31;95626.55;107916;1268;37846;-80
2022/09/17 08:43:02;;;;;;;3.50;0.90;;;;;;;15.53;61.88;95634.88;107946;1270;24401;-81
2022/09/17 08:45:36;;;;;;;2.40;1.10;;;;;;;16.01;61.64;95629.58;108238;1268;24387;-78
2022/09/17 08:48:11;;;;;;;2.60;1.00;;;;;;;16.60;60.97;95621.66;107974;1270;22762;-79
2022/09/17 08:50:43;;;;;;;1.60;0.90;;;;;;;16.60;59.38;95622.66;107944;1270;32917;-79
2022/09/17 08:53:30;;;;;;;2.50;0.90;;;;;;;16.16;57.84;95630.40;107945;1268;26256;-79
2022/09/17 08:56:08;;;;;;;2.50;0.80;;;;;;;15.60;57.89;95638.85;107998;1268;22526;-79
2022/09/17 08:59:04;;;;;;;2.00;1.30;;;;;;;15.24;59.13;95627.30;107809;1270;30784;-79
2022/09/17 09:01:40;;;;;;;2.20;1.40;;;;;;;15.18;59.02;95627.95;108047;1268;22548;-79
2022/09/17 09:04:40;;;;;;;2.00;1.00;;;;;;;14.90;58.87;95628.52;108005;1270;22795;-79
2022/09/17 09:07:17;;;;;;;2.30;1.40;;;;;;;14.57;58.87;95635.77;108035;1270;22557;-79
2022/09/17 09:09:53;;;;;;;3.20;1.70;;;;;;;14.33;59.35;95632.80;107982;1268;25519;-79
2022/09/17 09:12:30;;;;;;;2.20;1.10;;;;;;;14.08;59.54;95627.45;108080;1270;22647;-80
2022/09/17 09:15:04;;;;;;;1.70;0.90;;;;;;;14.11;60.45;95624.99;108056;1268;22714;-79
2022/09/17 09:17:42;;;;;;;1.80;1.40;;;;;;;14.14;60.30;95627.01;108131;1268;23427;-80
2022/09/17 09:20:19;;;;;;;4.40;1.80;;;;;;;13.95;59.98;95627.95;107947;1270;40786;-82
2022/09/17 09:22:54;;;;;;;1.30;0.90;;;;;;;13.80;60.40;95626.03;108086;1270;24246;-82
2022/09/17 09:25:29;;;;;;;2.10;1.00;;;;;;;13.77;59.96;95620.73;108031;1270;22558;-82
2022/09/17 09:28:17;;;;;;;2.60;1.20;;;;;;;13.66;60.38;95617.66;108077;1268;22824;-83
2022/09/17 09:31:04;;;;;;;2.70;1.30;;;;;;;13.78;59.99;95605.46;108113;1271;22568;-81
2022/09/17 09:33:39;;;;;;;1.20;1.00;;;;;;;13.92;59.70;95612.00;108075;1270;22662;-82
2022/09/17 09:36:15;;;;;;;4.70;1.10;;;;;;;14.13;59.99;95626.73;108076;1271;22555;-81
2022/09/17 09:38:52;;;;;;;2.00;1.10;;;;;;;14.13;58.67;95634.29;107995;1270;27755;-81
2022/09/17 09:41:29;;;;;;;2.90;1.50;;;;;;;14.01;59.06;95641.37;108053;1270;25258;-86
2022/09/17 09:44:04;;;;;;;2.70;1.60;;;;;;;14.08;59.77;95637.91;108009;1268;24172;-82
2022/09/17 09:47:00;;;;;;;5.00;1.30;;;;;;;14.18;59.03;95630.80;107774;1270;22532;-85
2022/09/17 09:49:45;;;;;;;2.70;1.30;;;;;;;14.15;58.15;95634.50;107865;1270;34791;-84
2022/09/17 09:52:31;;;;;;;2.30;1.30;;;;;;;14.28;58.31;95638.87;107901;1271;22543;-85
2022/09/17 09:55:19;;;;;;;4.20;1.30;;;;;;;14.42;58.48;95642.82;108102;1268;23852;-80
2022/09/17 09:57:54;;;;;;;2.30;1.50;;;;;;;14.62;58.14;95645.30;108098;1270;22551;-85
2022/09/17 10:00:31;;;;;;;4.10;1.70;;;;;;;14.61;57.74;95648.64;107875;1270;31856;-85
2022/09/17 10:03:12;;;;;;;1.90;1.30;;;;;;;14.45;58.12;95646.14;108027;1269;22640;-85
2022/09/17 10:06:00;;;;;;;1.30;1.20;;;;;;;14.34;58.81;95653.66;108141;1270;22527;-86
2022/09/17 10:08:35;;;;;;;2.40;1.20;;;;;;;14.54;59.37;95655.23;108068;1268;28006;-84
2022/09/17 10:11:21;;;;;;;1.70;1.00;;;;;;;14.69;58.35;95653.35;108189;1268;24194;-86
2022/09/17 10:14:13;;;;;;;1.80;1.20;;;;;;;14.69;57.91;95658.23;108192;1268;24118;-83
2022/09/17 10:16:44;;;;;;;3.80;1.20;;;;;;;14.61;57.11;95658.36;108208;1268;25818;-84
2022/09/17 10:19:24;;;;;;;1.50;1.00;;;;;;;14.56;57.15;95655.68;108062;1271;29074;-84
2022/09/17 10:21:58;;;;;;;1.90;1.00;;;;;;;14.69;57.30;95659.50;108081;1270;22551;-84
2022/09/17 10:24:32;;;;;;;2.80;1.60;;;;;;;14.73;57.15;95663.02;108103;1268;23302;-83
2022/09/17 10:27:07;;;;;;;1.90;1.10;;;;;;;14.56;56.71;95657.30;108089;1269;25208;-83
2022/09/17 10:29:44;;;;;;;2.00;1.20;;;;;;;14.42;56.29;95658.50;107963;1268;43876;-83
2022/09/17 10:32:20;;;;;;;2.50;1.10;;;;;;;14.31;56.25;95653.05;108055;1270;22536;-83
2022/09/17 10:35:06;;;;;;;2.40;1.30;;;;;;;14.34;56.56;95649.13;108048;1270;22544;-83
2022/09/17 10:37:47;;;;;;;2.10;1.20;;;;;;;14.33;56.20;95650.40;108085;1270;22651;-83
2022/09/17 10:40:31;;;;;;;1.50;1.00;;;;;;;14.13;55.77;95647.52;107966;1270;25362;-85
2022/09/17 10:43:24;;;;;;;2.50;1.10;;;;;;;14.02;56.13;95639.51;108060;1270;26612;-85
2022/09/17 10:46:00;;;;;;;2.40;1.30;;;;;;;14.02;57.11;95645.59;107912;1270;22547;-85
2022/09/17 10:48:38;;;;;;;1.90;1.00;;;;;;;14.12;57.66;95643.02;107986;1270;39501;-84
2022/09/17 10:51:20;;;;;;;3.00;1.60;;;;;;;14.24;57.89;95644.23;108101;1269;22536;-85
2022/09/17 10:54:28;;;;;;;2.70;1.70;;;;;;;14.23;58.83;95643.45;108076;1269;23879;-85
2022/09/17 10:57:05;;;;;;;3.90;1.60;;;;;;;14.26;59.40;95649.02;108016;1270;22558;-86
2022/09/17 10:59:58;;;;;;;2.00;1.60;;;;;;;14.32;59.64;95645.79;107775;1268;25880;-85
2022/09/17 11:03:07;;;;;;;3.80;1.40;;;;;;;14.37;59.90;95650.09;108134;1268;22565;-82
2022/09/17 11:05:53;;;;;;;3.00;1.80;;;;;;;14.15;59.50;95660.48;108186;1267;22513;-82
2022/09/17 11:08:30;;;;;;;2.10;1.80;;;;;;;13.90;59.89;95660.96;108058;1268;57108;-81
2022/09/17 11:11:11;;;;;;;3.50;1.80;;;;;;;13.73;60.58;95662.52;108190;1271;22569;-82
2022/09/17 11:13:56;;;;;;;3.60;1.60;;;;;;;13.70;61.39;95662.25;108179;1270;25287;-80
2022/09/17 11:16:40;;;;;;;4.00;1.80;;;;;;;13.81;61.78;95662.83;108081;1268;23019;-76
2022/09/17 11:19:23;;;;;;;2.80;2.00;;;;;;;13.89;61.84;95662.09;108114;1271;52870;-81
2022/09/17 11:22:06;;;;;;;4.20;2.10;;;;;;;13.93;62.36;95660.31;108201;1268;23444;-84
2022/09/17 11:25:07;;;;;;;3.20;2.10;;;;;;;13.89;62.09;95665.73;108147;1268;23230;-84
2022/09/17 11:27:51;;;;;;;2.00;1.60;;;;;;;14.02;62.65;95668.73;108156;1268;22560;-82
2022/09/17 11:30:25;;;;;;;2.30;1.80;;;;;;;14.04;62.24;95668.73;108060;1268;27305;-83
2022/09/17 11:33:09;;;;;;;2.40;1.60;;;;;;;14.00;62.42;95672.16;108185;1268;22542;-84
2022/09/17 11:35:47;;;;;;;3.50;2.00;;;;;;;14.15;62.42;95674.64;108114;1268;22531;-83
2022/09/17 11:38:25;;;;;;;3.00;1.90;;;;;;;14.14;61.58;95678.27;107906;1267;22581;-84
2022/09/17 11:41:03;;;;;;;2.90;1.80;;;;;;;14.21;62.00;95677.08;108094;1268;22566;-83
2022/09/17 11:43:38;;;;;;;2.30;1.70;;;;;;;14.30;61.73;95674.95;108059;1268;25031;-84
2022/09/17 11:46:16;;;;;;;1.80;1.60;;;;;;;14.30;61.65;95667.27;108040;1268;22567;-83
2022/09/17 11:48:51;;;;;;;4.70;2.10;;;;;;;14.27;61.56;95659.56;108078;1268;35508;-83
2022/09/17 11:51:34;;;;;;;3.30;2.10;;;;;;;14.32;62.25;95658.37;108161;1268;24149;-84
2022/09/17 11:54:16;;;;;;;4.20;2.20;;;;;;;14.40;62.03;95658.89;108114;1268;22546;-82
2022/09/17 11:56:52;;;;;;;2.90;2.00;;;;;;;14.37;61.76;95651.33;108125;1268;25238;-83
2022/09/17 11:59:34;;;;;;;3.60;2.10;;;;;;;14.37;61.66;95643.70;108151;1268;30183;-84
2022/09/17 12:02:14;;;;;;;5.40;2.30;;;;;;;14.30;61.86;95646.70;108154;1268;23987;-83
2022/09/17 12:04:49;;;;;;;4.20;2.00;;;;;;;14.33;62.15;95645.82;108158;1268;22564;-83
2022/09/17 12:07:32;;;;;;;3.30;2.00;;;;;;;14.24;61.78;95641.53;108206;1268;22534;-84